ALK128 VOMM-VCBI
Flight info
| Callsign | ALK128 |
|---|---|
| Flight time | 1h 0m |
| Altitude | 31000 |
| Route | TEGUT2B TEGUT V7 SAGOR SAGOR1A |
| Aircraft | A320/M-SDE3FGHIRWY/LB1 |
Departure
| Time | 2026-04-22 14:02 |
|---|---|
| Airport | Chennai International Airport (VOMM) |
Arrival
| Time | 2026-04-22 15:03 |
|---|---|
| Airport | Bandaranaike International Colombo Airport (VCBI) |
| Time | Latitude | Longitude | Altitude | Speed | Heading |
|---|---|---|---|---|---|
| 2026-04-22 13:44 | 12.98622 | 80.16643 | 53 ft | 0 kts | 339° |
| 2026-04-22 13:52 | 12.98621 | 80.16643 | 53 ft | 1 kts | 339° |
| 2026-04-22 13:52 | 12.98607 | 80.16649 | 47 ft | 3 kts | 335° |
| 2026-04-22 13:52 | 12.98589 | 80.16659 | 52 ft | 3 kts | 326° |
| 2026-04-22 13:53 | 12.98573 | 80.16671 | 48 ft | 3 kts | 308° |
| 2026-04-22 13:53 | 12.98564 | 80.16687 | 51 ft | 3 kts | 270° |
| 2026-04-22 13:53 | 12.98566 | 80.16698 | 47 ft | 1 kts | 249° |
| 2026-04-22 13:53 | 12.98567 | 80.16700 | 47 ft | 3 kts | 249° |
| 2026-04-22 13:54 | 12.98567 | 80.16701 | 47 ft | 0 kts | 249° |
| 2026-04-22 13:57 | 12.98563 | 80.16691 | 47 ft | 3 kts | 250° |
| 2026-04-22 13:57 | 12.98555 | 80.16666 | 51 ft | 5 kts | 249° |
| 2026-04-22 13:57 | 12.98539 | 80.16627 | 54 ft | 7 kts | 249° |
| 2026-04-22 13:57 | 12.98519 | 80.16572 | 53 ft | 9 kts | 250° |
| 2026-04-22 13:58 | 12.98493 | 80.16501 | 53 ft | 12 kts | 250° |
| 2026-04-22 13:58 | 12.98462 | 80.16414 | 55 ft | 14 kts | 248° |
| 2026-04-22 13:58 | 12.98424 | 80.16311 | 52 ft | 17 kts | 250° |
| 2026-04-22 13:58 | 12.98393 | 80.16223 | 53 ft | 12 kts | 251° |
| 2026-04-22 13:59 | 12.98370 | 80.16159 | 55 ft | 9 kts | 249° |
| 2026-04-22 13:59 | 12.98346 | 80.16090 | 55 ft | 12 kts | 250° |
| 2026-04-22 13:59 | 12.98311 | 80.16003 | 54 ft | 14 kts | 248° |
| 2026-04-22 13:59 | 12.98290 | 80.15899 | 53 ft | 16 kts | 287° |
| 2026-04-22 14:00 | 12.98325 | 80.15783 | 55 ft | 18 kts | 286° |
| 2026-04-22 14:00 | 12.98361 | 80.15651 | 53 ft | 20 kts | 285° |
| 2026-04-22 14:00 | 12.98385 | 80.15559 | 56 ft | 7 kts | 285° |
| 2026-04-22 14:00 | 12.98400 | 80.15506 | 56 ft | 9 kts | 285° |
| 2026-04-22 14:01 | 12.98423 | 80.15452 | 52 ft | 6 kts | 343° |
| 2026-04-22 14:01 | 12.98465 | 80.15454 | 56 ft | 3 kts | 23° |
| 2026-04-22 14:01 | 12.98484 | 80.15471 | 51 ft | 4 kts | 54° |
| 2026-04-22 14:01 | 12.98495 | 80.15508 | 54 ft | 8 kts | 73° |
| 2026-04-22 14:02 | 12.98597 | 80.15783 | 55 ft | 78 kts | 68° |
| 2026-04-22 14:02 | 12.98869 | 80.16503 | 54 ft | 136 kts | 69° |
| 2026-04-22 14:02 | 12.99265 | 80.17556 | 101 ft | 176 kts | 73° |
| 2026-04-22 14:02 | 12.99703 | 80.18706 | 734 ft | 170 kts | 74° |
| 2026-04-22 14:03 | 13.00050 | 80.19849 | 1362 ft | 167 kts | 89° |
| 2026-04-22 14:03 | 12.99700 | 80.20943 | 1873 ft | 165 kts | 135° |
| 2026-04-22 14:03 | 12.98732 | 80.21618 | 2130 ft | 178 kts | 159° |
| 2026-04-22 14:03 | 12.97530 | 80.22123 | 2333 ft | 197 kts | 158° |
| 2026-04-22 14:04 | 12.96196 | 80.22706 | 2543 ft | 219 kts | 157° |
| 2026-04-22 14:04 | 12.94726 | 80.23358 | 2772 ft | 242 kts | 157° |
| 2026-04-22 14:04 | 12.93110 | 80.24079 | 3198 ft | 261 kts | 156° |
| 2026-04-22 14:04 | 12.91425 | 80.24834 | 3925 ft | 266 kts | 154° |
| 2026-04-22 14:05 | 12.89716 | 80.25602 | 4720 ft | 270 kts | 154° |
| 2026-04-22 14:05 | 12.87982 | 80.26385 | 5431 ft | 275 kts | 153° |
| 2026-04-22 14:05 | 12.84147 | 80.26825 | 6600 ft | 294 kts | 195° |
| 2026-04-22 14:06 | 12.82364 | 80.25777 | 6793 ft | 301 kts | 217° |
| 2026-04-22 14:06 | 12.80733 | 80.24414 | 7500 ft | 303 kts | 217° |
| 2026-04-22 14:06 | 12.79092 | 80.23044 | 8265 ft | 306 kts | 217° |
| 2026-04-22 14:06 | 12.77430 | 80.21661 | 9003 ft | 309 kts | 217° |
| 2026-04-22 14:07 | 12.75744 | 80.20271 | 9733 ft | 313 kts | 217° |
| 2026-04-22 14:07 | 12.74016 | 80.18856 | 10132 ft | 328 kts | 217° |
| 2026-04-22 14:07 | 12.72168 | 80.17348 | 10282 ft | 351 kts | 217° |
| 2026-04-22 14:07 | 12.70219 | 80.15760 | 10626 ft | 363 kts | 217° |
| 2026-04-22 14:08 | 12.68235 | 80.14138 | 11206 ft | 367 kts | 217° |
| 2026-04-22 14:08 | 12.66238 | 80.12499 | 11827 ft | 369 kts | 217° |
| 2026-04-22 14:08 | 12.64225 | 80.10849 | 12461 ft | 372 kts | 217° |
| 2026-04-22 14:08 | 12.62200 | 80.09187 | 13092 ft | 374 kts | 217° |
| 2026-04-22 14:09 | 12.60162 | 80.07514 | 13695 ft | 377 kts | 217° |
| 2026-04-22 14:09 | 12.58109 | 80.05830 | 14246 ft | 379 kts | 218° |
| 2026-04-22 14:09 | 12.56043 | 80.04138 | 14788 ft | 381 kts | 218° |
| 2026-04-22 14:09 | 12.53968 | 80.02438 | 15334 ft | 384 kts | 218° |
| 2026-04-22 14:10 | 12.51874 | 80.00726 | 15851 ft | 386 kts | 218° |
| 2026-04-22 14:10 | 12.49766 | 79.99007 | 16393 ft | 388 kts | 219° |
| 2026-04-22 14:10 | 12.47642 | 79.97277 | 16906 ft | 391 kts | 219° |
| 2026-04-22 14:10 | 12.45505 | 79.95531 | 17411 ft | 395 kts | 219° |
| 2026-04-22 14:11 | 12.43358 | 79.93775 | 17976 ft | 396 kts | 220° |
| 2026-04-22 14:11 | 12.41204 | 79.92013 | 18479 ft | 397 kts | 219° |
| 2026-04-22 14:11 | 12.39040 | 79.90245 | 18974 ft | 399 kts | 220° |
| 2026-04-22 14:11 | 12.36871 | 79.88474 | 19497 ft | 399 kts | 220° |
| 2026-04-22 14:12 | 12.34698 | 79.86700 | 20021 ft | 400 kts | 219° |
| 2026-04-22 14:12 | 12.32516 | 79.84918 | 20521 ft | 402 kts | 219° |
| 2026-04-22 14:12 | 12.30326 | 79.83129 | 21040 ft | 404 kts | 219° |
| 2026-04-22 14:12 | 12.28126 | 79.81332 | 21554 ft | 405 kts | 219° |
| 2026-04-22 14:13 | 12.25916 | 79.79530 | 22008 ft | 407 kts | 219° |
| 2026-04-22 14:13 | 12.23698 | 79.77721 | 22503 ft | 408 kts | 219° |
| 2026-04-22 14:13 | 12.21471 | 79.75907 | 22975 ft | 410 kts | 218° |
| 2026-04-22 14:13 | 12.19233 | 79.74088 | 23393 ft | 412 kts | 218° |
| 2026-04-22 14:14 | 12.16984 | 79.72261 | 23750 ft | 414 kts | 218° |
| 2026-04-22 14:14 | 12.14728 | 79.70423 | 24117 ft | 415 kts | 219° |
| 2026-04-22 14:14 | 12.12466 | 79.68577 | 24500 ft | 416 kts | 219° |
| 2026-04-22 14:14 | 12.10197 | 79.66728 | 24872 ft | 418 kts | 219° |
| 2026-04-22 14:15 | 12.07923 | 79.64875 | 25221 ft | 419 kts | 219° |
| 2026-04-22 14:15 | 12.05643 | 79.63018 | 25570 ft | 420 kts | 219° |
| 2026-04-22 14:15 | 12.03356 | 79.61154 | 25925 ft | 421 kts | 219° |
| 2026-04-22 14:15 | 12.01064 | 79.59287 | 26262 ft | 422 kts | 219° |
| 2026-04-22 14:16 | 11.98761 | 79.57417 | 26592 ft | 423 kts | 219° |
| 2026-04-22 14:16 | 11.96450 | 79.55543 | 26917 ft | 425 kts | 219° |
| 2026-04-22 14:16 | 11.94136 | 79.53665 | 27242 ft | 426 kts | 219° |
| 2026-04-22 14:16 | 11.91816 | 79.51778 | 27553 ft | 427 kts | 219° |
| 2026-04-22 14:17 | 11.89491 | 79.49882 | 27873 ft | 428 kts | 219° |
| 2026-04-22 14:17 | 11.87157 | 79.47982 | 28194 ft | 430 kts | 219° |
| 2026-04-22 14:17 | 11.84816 | 79.46079 | 28520 ft | 431 kts | 219° |
| 2026-04-22 14:17 | 11.82466 | 79.44169 | 28823 ft | 433 kts | 219° |
| 2026-04-22 14:18 | 11.80104 | 79.42248 | 29131 ft | 435 kts | 219° |
| 2026-04-22 14:18 | 11.77737 | 79.40327 | 29467 ft | 435 kts | 219° |
| 2026-04-22 14:18 | 11.75364 | 79.38403 | 29798 ft | 436 kts | 219° |
| 2026-04-22 14:18 | 11.72991 | 79.36481 | 30176 ft | 435 kts | 219° |
| 2026-04-22 14:19 | 11.70629 | 79.34566 | 30547 ft | 433 kts | 219° |
| 2026-04-22 14:19 | 11.68273 | 79.32655 | 30757 ft | 432 kts | 219° |
| 2026-04-22 14:19 | 11.65935 | 79.30759 | 30804 ft | 426 kts | 219° |
| 2026-04-22 14:20 | 11.57992 | 79.27172 | 30805 ft | 427 kts | 185° |
| 2026-04-22 14:20 | 11.55016 | 79.27357 | 30805 ft | 432 kts | 172° |
| 2026-04-22 14:20 | 11.52133 | 79.28285 | 30808 ft | 439 kts | 158° |
| 2026-04-22 14:21 | 11.43961 | 79.32589 | 30810 ft | 441 kts | 156° |
| 2026-04-22 14:22 | 11.35790 | 79.36918 | 30816 ft | 441 kts | 156° |
| 2026-04-22 14:23 | 11.27614 | 79.41231 | 30810 ft | 441 kts | 156° |
| 2026-04-22 14:23 | 11.22162 | 79.44098 | 30812 ft | 441 kts | 156° |
| 2026-04-22 14:24 | 11.16704 | 79.46971 | 30810 ft | 442 kts | 156° |
| 2026-04-22 14:24 | 11.11241 | 79.49839 | 30813 ft | 442 kts | 156° |
| 2026-04-22 14:25 | 11.05774 | 79.52706 | 30816 ft | 442 kts | 156° |
| 2026-04-22 14:25 | 11.00306 | 79.55575 | 30820 ft | 442 kts | 156° |
| 2026-04-22 14:26 | 10.94836 | 79.58445 | 30830 ft | 442 kts | 156° |
| 2026-04-22 14:26 | 10.90288 | 79.60834 | 30832 ft | 442 kts | 156° |
| 2026-04-22 14:27 | 10.84820 | 79.63709 | 30835 ft | 443 kts | 156° |
| 2026-04-22 14:27 | 10.79346 | 79.66578 | 30836 ft | 442 kts | 156° |
| 2026-04-22 14:28 | 10.73872 | 79.69437 | 30842 ft | 442 kts | 156° |
| 2026-04-22 14:28 | 10.68407 | 79.72304 | 30846 ft | 442 kts | 156° |
| 2026-04-22 14:29 | 10.62946 | 79.75173 | 30845 ft | 441 kts | 156° |
| 2026-04-22 14:29 | 10.57494 | 79.78041 | 30843 ft | 441 kts | 156° |
| 2026-04-22 14:30 | 10.52039 | 79.80910 | 30835 ft | 441 kts | 156° |
| 2026-04-22 14:30 | 10.46585 | 79.83774 | 30835 ft | 441 kts | 156° |
| 2026-04-22 14:31 | 10.41128 | 79.86632 | 30836 ft | 441 kts | 156° |
| 2026-04-22 14:31 | 10.35669 | 79.89491 | 30840 ft | 441 kts | 156° |
| 2026-04-22 14:32 | 10.30210 | 79.92347 | 30840 ft | 441 kts | 156° |
| 2026-04-22 14:32 | 10.24752 | 79.95206 | 30841 ft | 441 kts | 156° |
| 2026-04-22 14:33 | 10.19293 | 79.98064 | 30845 ft | 441 kts | 156° |
| 2026-04-22 14:33 | 10.13838 | 80.00930 | 30845 ft | 441 kts | 156° |
| 2026-04-22 14:34 | 10.08346 | 80.03807 | 30850 ft | 441 kts | 156° |
| 2026-04-22 14:34 | 10.02866 | 80.06609 | 30850 ft | 440 kts | 160° |
| 2026-04-22 14:35 | 9.96998 | 80.08050 | 30849 ft | 432 kts | 179° |
| 2026-04-22 14:35 | 9.91044 | 80.07998 | 30847 ft | 431 kts | 183° |
| 2026-04-22 14:36 | 9.85046 | 80.07872 | 30846 ft | 431 kts | 183° |
| 2026-04-22 14:36 | 9.79046 | 80.07765 | 30847 ft | 431 kts | 183° |
| 2026-04-22 14:37 | 9.73043 | 80.07657 | 30848 ft | 431 kts | 183° |
| 2026-04-22 14:37 | 9.67039 | 80.07538 | 30852 ft | 432 kts | 183° |
| 2026-04-22 14:38 | 9.61035 | 80.07421 | 30854 ft | 431 kts | 183° |
| 2026-04-22 14:38 | 9.55035 | 80.07300 | 30856 ft | 431 kts | 183° |
| 2026-04-22 14:39 | 9.49036 | 80.07182 | 30857 ft | 431 kts | 183° |
| 2026-04-22 14:39 | 9.43037 | 80.07074 | 30859 ft | 431 kts | 183° |
| 2026-04-22 14:40 | 9.34038 | 80.06900 | 30864 ft | 431 kts | 183° |
| 2026-04-22 14:40 | 9.28041 | 80.06790 | 30863 ft | 431 kts | 182° |
| 2026-04-22 14:41 | 9.22041 | 80.06678 | 30865 ft | 431 kts | 182° |
| 2026-04-22 14:41 | 9.16038 | 80.06560 | 30865 ft | 431 kts | 182° |
| 2026-04-22 14:42 | 9.10033 | 80.06440 | 30869 ft | 432 kts | 182° |
| 2026-04-22 14:42 | 9.04027 | 80.06323 | 30870 ft | 432 kts | 182° |
| 2026-04-22 14:43 | 8.98022 | 80.06205 | 30870 ft | 432 kts | 182° |
| 2026-04-22 14:43 | 8.92019 | 80.06085 | 30878 ft | 432 kts | 182° |
| 2026-04-22 14:44 | 8.86010 | 80.05963 | 30879 ft | 432 kts | 182° |
| 2026-04-22 14:44 | 8.79922 | 80.05839 | 30868 ft | 442 kts | 182° |
| 2026-04-22 14:45 | 8.76802 | 80.05781 | 30443 ft | 443 kts | 182° |
| 2026-04-22 14:45 | 8.73687 | 80.05727 | 29318 ft | 451 kts | 182° |
| 2026-04-22 14:45 | 8.70550 | 80.05671 | 28475 ft | 450 kts | 182° |
| 2026-04-22 14:45 | 8.67429 | 80.05613 | 27747 ft | 447 kts | 182° |
| 2026-04-22 14:46 | 8.64323 | 80.05552 | 27057 ft | 444 kts | 182° |
| 2026-04-22 14:46 | 8.61285 | 80.05489 | 26400 ft | 442 kts | 182° |
| 2026-04-22 14:46 | 8.58219 | 80.05426 | 25702 ft | 440 kts | 181° |
| 2026-04-22 14:46 | 8.55172 | 80.05365 | 25163 ft | 435 kts | 181° |
| 2026-04-22 14:47 | 8.52163 | 80.05307 | 24639 ft | 430 kts | 181° |
| 2026-04-22 14:47 | 8.49186 | 80.05250 | 24117 ft | 426 kts | 181° |
| 2026-04-22 14:47 | 8.46235 | 80.05194 | 23624 ft | 422 kts | 181° |
| 2026-04-22 14:47 | 8.43312 | 80.05139 | 23078 ft | 419 kts | 181° |
| 2026-04-22 14:48 | 8.40418 | 80.05084 | 22596 ft | 414 kts | 181° |
| 2026-04-22 14:48 | 8.37551 | 80.05028 | 22118 ft | 410 kts | 181° |
| 2026-04-22 14:48 | 8.34703 | 80.04973 | 21632 ft | 408 kts | 181° |
| 2026-04-22 14:48 | 8.31869 | 80.04917 | 21133 ft | 406 kts | 181° |
| 2026-04-22 14:49 | 8.29046 | 80.04862 | 20635 ft | 405 kts | 181° |
| 2026-04-22 14:49 | 8.26234 | 80.04807 | 20130 ft | 404 kts | 181° |
| 2026-04-22 14:49 | 8.23427 | 80.04754 | 19607 ft | 403 kts | 181° |
| 2026-04-22 14:49 | 8.20627 | 80.04703 | 19069 ft | 402 kts | 181° |
| 2026-04-22 14:50 | 8.17828 | 80.04653 | 18530 ft | 402 kts | 181° |
| 2026-04-22 14:50 | 8.15033 | 80.04600 | 17943 ft | 402 kts | 181° |
| 2026-04-22 14:50 | 8.12238 | 80.04546 | 17344 ft | 401 kts | 181° |
| 2026-04-22 14:50 | 8.09457 | 80.04491 | 16770 ft | 399 kts | 181° |
| 2026-04-22 14:51 | 8.06690 | 80.04435 | 16179 ft | 397 kts | 181° |
| 2026-04-22 14:51 | 8.03940 | 80.04378 | 15625 ft | 394 kts | 181° |
| 2026-04-22 14:51 | 8.01207 | 80.04322 | 15123 ft | 390 kts | 181° |
| 2026-04-22 14:51 | 7.98504 | 80.04270 | 14508 ft | 389 kts | 181° |
| 2026-04-22 14:52 | 7.95815 | 80.04220 | 13967 ft | 387 kts | 181° |
| 2026-04-22 14:52 | 7.93137 | 80.04170 | 13537 ft | 381 kts | 181° |
| 2026-04-22 14:52 | 7.90496 | 80.04120 | 12944 ft | 379 kts | 181° |
| 2026-04-22 14:52 | 7.87870 | 80.04070 | 12376 ft | 376 kts | 181° |
| 2026-04-22 14:53 | 7.85233 | 80.04020 | 11833 ft | 372 kts | 180° |
| 2026-04-22 14:53 | 7.82653 | 80.03970 | 11309 ft | 369 kts | 180° |
| 2026-04-22 14:53 | 7.80096 | 80.03922 | 10804 ft | 366 kts | 180° |
| 2026-04-22 14:53 | 7.77570 | 80.03874 | 10436 ft | 358 kts | 180° |
| 2026-04-22 14:54 | 7.75132 | 80.03828 | 10329 ft | 344 kts | 180° |
| 2026-04-22 14:54 | 7.72786 | 80.03782 | 10209 ft | 331 kts | 180° |
| 2026-04-22 14:54 | 7.70524 | 80.03739 | 10097 ft | 320 kts | 180° |
| 2026-04-22 14:54 | 7.68332 | 80.03695 | 9923 ft | 312 kts | 180° |
| 2026-04-22 14:55 | 7.66186 | 80.03652 | 9513 ft | 306 kts | 180° |
| 2026-04-22 14:55 | 7.64069 | 80.03611 | 8866 ft | 303 kts | 180° |
| 2026-04-22 14:55 | 7.61971 | 80.03573 | 8261 ft | 300 kts | 180° |
| 2026-04-22 14:55 | 7.59894 | 80.03536 | 7652 ft | 297 kts | 180° |
| 2026-04-22 14:56 | 7.57843 | 80.03497 | 7158 ft | 293 kts | 180° |
| 2026-04-22 14:56 | 7.55804 | 80.03457 | 6678 ft | 294 kts | 180° |
| 2026-04-22 14:56 | 7.53808 | 80.03420 | 6331 ft | 288 kts | 180° |
| 2026-04-22 14:56 | 7.51783 | 80.03381 | 5866 ft | 286 kts | 180° |
| 2026-04-22 14:57 | 7.49824 | 80.03343 | 5417 ft | 285 kts | 179° |
| 2026-04-22 14:57 | 7.47823 | 80.03303 | 4979 ft | 282 kts | 179° |
| 2026-04-22 14:57 | 7.45890 | 80.03266 | 4716 ft | 270 kts | 180° |
| 2026-04-22 14:57 | 7.44096 | 80.03232 | 4578 ft | 256 kts | 180° |
| 2026-04-22 14:58 | 7.42303 | 80.03197 | 4457 ft | 254 kts | 180° |
| 2026-04-22 14:58 | 7.40552 | 80.03162 | 4377 ft | 251 kts | 180° |
| 2026-04-22 14:58 | 7.38810 | 80.03122 | 4305 ft | 250 kts | 182° |
| 2026-04-22 14:58 | 7.37114 | 80.02743 | 4107 ft | 250 kts | 202° |
| 2026-04-22 14:59 | 7.35644 | 80.01825 | 3821 ft | 249 kts | 216° |
| 2026-04-22 14:59 | 7.34269 | 80.00767 | 3513 ft | 249 kts | 217° |
| 2026-04-22 14:59 | 7.32917 | 79.99725 | 3217 ft | 248 kts | 216° |
| 2026-04-22 14:59 | 7.31527 | 79.98658 | 2891 ft | 248 kts | 217° |
| 2026-04-22 15:00 | 7.30177 | 79.97623 | 2569 ft | 246 kts | 217° |
| 2026-04-22 15:00 | 7.28853 | 79.96608 | 2265 ft | 230 kts | 217° |
| 2026-04-22 15:00 | 7.27626 | 79.95666 | 1985 ft | 215 kts | 216° |
| 2026-04-22 15:00 | 7.26470 | 79.94780 | 1729 ft | 202 kts | 216° |
| 2026-04-22 15:01 | 7.25390 | 79.93952 | 1487 ft | 189 kts | 216° |
| 2026-04-22 15:01 | 7.24389 | 79.93184 | 1246 ft | 171 kts | 216° |
| 2026-04-22 15:01 | 7.23510 | 79.92509 | 1032 ft | 149 kts | 216° |
| 2026-04-22 15:01 | 7.22700 | 79.91887 | 847 ft | 144 kts | 216° |
| 2026-04-22 15:02 | 7.21910 | 79.91283 | 692 ft | 141 kts | 217° |
| 2026-04-22 15:02 | 7.21126 | 79.90681 | 523 ft | 141 kts | 217° |
| 2026-04-22 15:02 | 7.20351 | 79.90087 | 331 ft | 140 kts | 216° |
| 2026-04-22 15:02 | 7.19582 | 79.89498 | 118 ft | 138 kts | 216° |
| 2026-04-22 15:03 | 7.18832 | 79.88926 | 30 ft | 124 kts | 217° |
| 2026-04-22 15:03 | 7.18284 | 79.88504 | 27 ft | 75 kts | 218° |
| 2026-04-22 15:03 | 7.18006 | 79.88293 | 29 ft | 25 kts | 217° |
| 2026-04-22 15:03 | 7.17915 | 79.88221 | 29 ft | 8 kts | 219° |
| 2026-04-22 15:04 | 7.17874 | 79.88217 | 30 ft | 7 kts | 147° |
| 2026-04-22 15:04 | 7.17837 | 79.88258 | 29 ft | 9 kts | 128° |
| 2026-04-22 15:04 | 7.17803 | 79.88301 | 28 ft | 5 kts | 127° |
| 2026-04-22 15:04 | 7.17767 | 79.88328 | 28 ft | 8 kts | 179° |
| 2026-04-22 15:05 | 7.17714 | 79.88294 | 28 ft | 11 kts | 219° |
| 2026-04-22 15:05 | 7.17659 | 79.88253 | 28 ft | 7 kts | 215° |
| 2026-04-22 15:05 | 7.17612 | 79.88273 | 28 ft | 9 kts | 134° |
| 2026-04-22 15:05 | 7.17566 | 79.88334 | 27 ft | 12 kts | 128° |
| 2026-04-22 15:06 | 7.17550 | 79.88364 | 27 ft | 4 kts | 85° |
| 2026-04-22 15:06 | 7.17584 | 79.88393 | 27 ft | 6 kts | 41° |
| 2026-04-22 15:06 | 7.17609 | 79.88412 | 27 ft | 2 kts | 36° |
| 2026-04-22 15:06 | 7.17611 | 79.88413 | 27 ft | 0 kts | 36° |